16°C
Porth, Newquay, Cornwall. UK  Tell A Friend
 Ad **Ad
Updated25/06/2017 21:45 
 


Nearby METAR Reports From


Metar Station     Metar Station     Metar Station     Metar Station     Metar Station
EGHQ Newquay     EGDR Culdrose (navy)     EGDX ST Athan raf     EGDY Yeovitilton (navy)     EGFF Cardiff
EGHH Bournemouth     EGBB Birmingham     EGKA Shoreham-By-Sea     EGOP Pembry Sands     EGTE Exeter Airport
EGGD Bristol     EGHE Scilly     EGJA Alderney     EGJB Guernsey     EGJJ Jersey
France       LFRC Cherbourg/Mauper     LFRB Brest/Guipavas     LFRO Lannion/Servel        
More Metars Here                                
EGHQ - Newquay, United Kingdom
Updated: 25/06/2017 21:20
Partly Cloudy
Partly Cloudy
 Wind from WNW
Wind: WNW 10 mph , 17 km/h, 9 kts
Temperature: 15°C
Dew Point: 12°C
Humidity: 82%
Barometer: 1015 hPa
Clouds: Partly Cloudy
Visibility: 6 miles , 10 km
Cloud details: Partly Cloudy 305 m
Partly Cloudy 671 m
2017/06/25 20:20 EGHQ 252020Z 29009KT 260V320 9999 SCT010 SCT022 15/12 Q1015
EGDR - Culdrose (navy), United Kingdom
Updated: 25/06/2017 20:50
Overcast
Overcast
 Wind from WNW
Wind: WNW 9 mph , 15 km/h, 8 kts
Temperature: 15°C
Dew Point: 12°C
Humidity: 82%
Barometer: 1015 hPa
Clouds: Overcast
Visibility: 6 miles , 10 km
Cloud details: Overcast 457 m
2017/06/25 19:50 EGDR 251950Z AUTO 30008KT 9999 // OVC015/// 15/12 Q1015
 
EGHC - Lands End, United Kingdom
Updated: 24/06/2017 18:20

NOT Current
Mostly Cloudy
Mostly Cloudy
 Wind from W
Wind: W 23 mph , 37 km/h, 20 kts
Temperature: 15°C
Dew Point: 14°C
Humidity: 94%
Barometer: 1015 hPa
Clouds: Mostly Cloudy
Visibility: 6 miles , 10 km
Cloud details: Few Clouds 183 m
Partly Cloudy 366 m
Mostly Cloudy 914 m
2017/06/24 17:20 EGHC 241720Z 28020KT 9999 FEW006 SCT012 BKN030 15/14 Q1015
EGHE - Scilly Saint Mar, United Kingdom
Updated: 24/06/2017 17:50

NOT Current
Mostly Cloudy
Mostly Cloudy
 Wind from W
Wind: W 16 mph , 26 km/h, 14 kts
Temperature: 17°C
Dew Point: 14°C
Humidity: 83%
Barometer: 1016 hPa
Clouds: Mostly Cloudy
Visibility: 6 miles , 10 km
Cloud details: Partly Cloudy 366 m
Mostly Cloudy 762 m
2017/06/24 16:50 EGHE 241650Z 27014KT 9999 SCT012 BKN025 17/14 Q1016
 
EGTE - Exeter Airport, United Kingdom
Updated: 25/06/2017 21:20
Partly Cloudy
Partly Cloudy
 Wind from W
Wind: W 7 mph , 11 km/h, 6 kts
Temperature: 16°C
Dew Point: 12°C
Humidity: 77%
Barometer: 1015 hPa
Clouds: Partly Cloudy
Visibility: 6 miles , 10 km
Cloud details: Partly Cloudy 914 m
2017/06/25 20:20 EGTE 252020Z 27006KT 240V300 9999 SCT030 16/12 Q1015
EGOP - Pembry Sands, United Kingdom
Updated: 25/06/2017 20:50
Mostly Cloudy
Mostly Cloudy
 Wind from NNW
Wind: NNW 6 mph , 9 km/h, 5 kts
Temperature: 16°C
Dew Point: 13°C
Humidity: 83%
Barometer: 1014 hPa
Clouds: Mostly Cloudy
Visibility: 6 miles , 10 km
Cloud details: Few Clouds 732 m
Mostly Cloudy 975 m
2017/06/25 19:50 EGOP 251950Z AUTO 34005KT 9999 // FEW024/// BKN032/// 16/13 Q1014
 
EGDX - St Athan Raf, United Kingdom
Updated: 25/06/2017 20:50
Mostly Cloudy
Mostly Cloudy
 Wind from W
Wind: W 15 mph , 24 km/h, 13 kts
Temperature: 15°C
Dew Point: 13°C
Humidity: 88%
Barometer: 1014 hPa
Clouds: Mostly Cloudy
Visibility: 6 miles , 10 km
Cloud details: Mostly Cloudy 244 m
Mostly Cloudy 457 m
2017/06/25 19:50 EGDX 251950Z AUTO 27013KT 9999 BKN008/// BKN015/// 15/13 Q1014
EGFF - Cardiff-Wales Ar, United Kingdom
Updated: 25/06/2017 21:20
Overcast
Overcast
 Wind from W
Wind: W 12 mph , 19 km/h, 10 kts
Temperature: 15°C
Dew Point: 14°C
Humidity: 94%
Barometer: 1014 hPa
Clouds: Overcast
Visibility: 6 miles , 10 km
Cloud details: Mostly Cloudy 244 m
Overcast 1280 m
2017/06/25 20:20 EGFF 252020Z AUTO 28010KT 9999 BKN008 OVC042 15/14 Q1014
 
EGDY - Yeovilton (navy), United Kingdom
Updated: 25/06/2017 20:50
Few Clouds
Few Clouds
 Wind from NW
Wind: NW 7 mph , 11 km/h, 6 kts
Temperature: 17°C
Dew Point: 13°C
Humidity: 77%
Barometer: 1014 hPa
Clouds: Few Clouds
Visibility: 6 miles , 10 km
Cloud details: Few Clouds 853 m
2017/06/25 19:50 EGDY 251950Z AUTO 31006KT 9999 FEW028/// 17/13 Q1014
EGGD - Bristol/Lulsgate, United Kingdom
Updated: 25/06/2017 21:20
Overcast
Overcast
 Wind from W
Wind: W 13 mph , 20 km/h, 11 kts
Temperature: 14°C
Dew Point: 13°C
Humidity: 94%
Barometer: 1014 hPa
Clouds: Overcast
Visibility: 6 miles , 10 km
Cloud details: Mostly Cloudy 213 m
Overcast 1219 m
2017/06/25 20:20 EGGD 252020Z AUTO 26011KT 9999 BKN007 OVC040 14/13 Q1014
 
EGBB - Birmingham Airpo, United Kingdom
Updated: 25/06/2017 21:20
Partly Cloudy
Partly Cloudy
 Wind from NW
Wind: NW 9 mph , 15 km/h, 8 kts
Temperature: 15°C
Dew Point: 8°C
Humidity: 63%
Barometer: 1013 hPa
Clouds: Partly Cloudy
Visibility: 6 miles , 10 km
Cloud details: Partly Cloudy 975 m
2017/06/25 20:20 EGBB 252020Z 32008KT 9999 SCT032 15/08 Q1013
EGHH - Bournemouth Airp, United Kingdom
Updated: 25/06/2017 21:20
Few Clouds
Few Clouds
 Wind from WNW
Wind: WNW 9 mph , 15 km/h, 8 kts
Temperature: 17°C
Dew Point: 12°C
Humidity: 73%
Barometer: 1014 hPa
Clouds: Few Clouds
Visibility: 6 miles , 10 km
Cloud details: Few Clouds 1067 m
2017/06/25 20:20 EGHH 252020Z 29008KT 9999 FEW035 17/12 Q1014
 
EGKA - Shoreham-By-Sea, United Kingdom
Updated: 25/06/2017 18:20

NOT Current
Partly Cloudy
Partly Cloudy
 Wind from WSW
Wind: WSW 20 mph , 31 km/h, Gust: 31 mph , 50 km/h, 17 kts
Temperature: 19°C
Dew Point: 15°C
Humidity: 78%
Barometer: 1012 hPa
Clouds: Partly Cloudy
Visibility: 6 miles , 10 km
Cloud details: Few Clouds 305 m
Partly Cloudy 792 m
2017/06/25 17:20 EGKA 251720Z 25017G27KT 9999 FEW010 SCT026 19/15 Q1012
EGJA - Alderney/Channel, United Kingdom
Updated: 25/06/2017 19:20

NOT Current
Mostly Cloudy
Mostly Cloudy
 Wind from W
Wind: W 9 mph , 15 km/h, 8 kts
Temperature: 15°C
Dew Point: 15°C
Humidity: 100%
Barometer: 1015 hPa
Clouds: Mostly Cloudy
Visibility: 6 miles , 10 km
Cloud details: Few Clouds 91 m
Mostly Cloudy 183 m
2017/06/25 18:20 EGJA 251820Z 28008KT 9999 5000S R26/0700 FEW003 BKN006 15/15 Q1015
 
EGJB - Guernsey Airport, United Kingdom
Updated: 25/06/2017 20:50
Mostly Cloudy
Mostly Cloudy
 Wind from W
Wind: W 10 mph , 17 km/h, 9 kts
Temperature: 15°C
Dew Point: 15°C
Humidity: 100%
Barometer: 1016 hPa
Clouds: Mostly Cloudy
Visibility: 6 miles , 10 km
Cloud details: Few Clouds 91 m
Mostly Cloudy 335 m
2017/06/25 19:50 EGJB 251950Z 28009KT 9999 8000E FEW003 BKN011 15/15 Q1016
EGJJ - Jersey Airport, United Kingdom
Updated: 25/06/2017 21:20
Mostly Cloudy
Mostly Cloudy
 Wind from WNW
Wind: WNW 12 mph , 19 km/h, 10 kts
Temperature: 16°C
Dew Point: 15°C
Humidity: 94%
Barometer: 1016 hPa
Clouds: Mostly Cloudy
Visibility: 6 miles , 10 km
Cloud details: Few Clouds 61 m
Mostly Cloudy 305 m
2017/06/25 20:20 EGJJ 252020Z 30010KT 9999 FEW002 BKN010 16/15 Q1016 NOSIG
 
LFRC - Cherbourg/Mauper, France
Updated: 25/06/2017 21:30
Overcast
Overcast
 Wind from W
Wind: W 12 mph , 19 km/h, 10 kts
Temperature: 15°C
Dew Point: 13°C
Humidity: 88%
Barometer: 1016 hPa
Clouds: Overcast
Visibility: 6 miles , 10 km
Cloud details: Overcast 335 m
2017/06/25 20:30 LFRC 252030Z AUTO 26010KT 230V290 9999 OVC011 15/13 Q1016
LFRB - Brest/Guipavas, France
Updated: 25/06/2017 21:30
Overcast
Overcast
 Wind from NW
Wind: NW 5 mph , 7 km/h, 4 kts
Temperature: 16°C
Dew Point: 15°C
Humidity: 94%
Barometer: 1017 hPa
Clouds: Overcast
Visibility: 6 miles , 10 km
Cloud details: Mostly Cloudy 183 m
Overcast 335 m
2017/06/25 20:30 LFRB 252030Z AUTO 32004KT 9999 BKN006 OVC011 16/15 Q1017 TEMPO 4000 BR BECMG 26010KT
 
LFRO - Lannion/Servel, France
Updated: 25/06/2017 21:30
Overcast
Overcast
 Wind from WNW
Wind: WNW 6 mph , 9 km/h, 5 kts
Temperature: 16°C
Dew Point: 15°C
Humidity: 94%
Barometer: 1017 hPa
Clouds: Overcast
Visibility: 6 miles , 10 km
Cloud details: Mostly Cloudy 122 m
Mostly Cloudy 244 m
Overcast 488 m
2017/06/25 20:30 LFRO 252030Z AUTO 30005KT 9999 BKN004 BKN008 OVC016 16/15 Q1017

# Note Plymouth airport closed 23/12/2011

Metar, brief description

METAR is a format for reporting weather information. A METAR weather report is predominantly used by pilots in fulfillment of a part of a pre-flight weather briefing, and by meteorologists, who use aggregated METAR information to assist in weather forecasting.

Raw METAR is the most popular format in the world for the transmission of weather data. Each METAR report contains essential information about the current weather conditions: Temperature, Dew Point, Barometric Pressure, Wind Speed and Direction, Visibility, Clouds Cover, Current Weather (Rain, Thunderstorms, Hail, Snow and so on...), here is an example of a raw metar report for EGHQ (Newquay airport).
METAR not available